sensor_id;sensor_type;location;lat;lon;timestamp;P1;durP1;ratioP1;P2;durP2;ratioP2
36259;SDS011;22296;50.824;5.644;2023-07-08T00:00:39;5.15;;;4.03;;
36259;SDS011;22296;50.824;5.644;2023-07-08T00:03:06;5.32;;;4.35;;
36259;SDS011;22296;50.824;5.644;2023-07-08T00:05:33;6.70;;;3.92;;
36259;SDS011;22296;50.824;5.644;2023-07-08T00:08:00;7.63;;;4.60;;
36259;SDS011;22296;50.824;5.644;2023-07-08T00:10:27;5.97;;;4.03;;
36259;SDS011;22296;50.824;5.644;2023-07-08T00:12:55;6.72;;;4.18;;
36259;SDS011;22296;50.824;5.644;2023-07-08T00:15:25;8.00;;;4.38;;
36259;SDS011;22296;50.824;5.644;2023-07-08T00:17:54;5.43;;;4.30;;
36259;SDS011;22296;50.824;5.644;2023-07-08T00:22:56;5.80;;;4.07;;
36259;SDS011;22296;50.824;5.644;2023-07-08T00:25:23;5.90;;;4.43;;
36259;SDS011;22296;50.824;5.644;2023-07-08T00:27:50;7.30;;;4.47;;
36259;SDS011;22296;50.824;5.644;2023-07-08T00:30:18;9.35;;;4.90;;
36259;SDS011;22296;50.824;5.644;2023-07-08T00:32:50;7.00;;;4.43;;
36259;SDS011;22296;50.824;5.644;2023-07-08T00:35:53;9.18;;;4.55;;
36259;SDS011;22296;50.824;5.644;2023-07-08T00:38:23;7.43;;;4.20;;
36259;SDS011;22296;50.824;5.644;2023-07-08T00:43:49;9.25;;;4.90;;
36259;SDS011;22296;50.824;5.644;2023-07-08T00:51:52;7.10;;;5.03;;
36259;SDS011;22296;50.824;5.644;2023-07-08T00:54:19;6.45;;;4.85;;
36259;SDS011;22296;50.824;5.644;2023-07-08T00:57:05;6.53;;;4.68;;
36259;SDS011;22296;50.824;5.644;2023-07-08T00:59:45;6.00;;;4.80;;
36259;SDS011;22296;50.824;5.644;2023-07-08T01:02:16;6.05;;;4.32;;
36259;SDS011;22296;50.824;5.644;2023-07-08T01:07:16;6.32;;;4.88;;
36259;SDS011;22296;50.824;5.644;2023-07-08T01:09:49;6.97;;;4.78;;
36259;SDS011;22296;50.824;5.644;2023-07-08T01:12:24;6.70;;;4.70;;
36259;SDS011;22296;50.824;5.644;2023-07-08T01:14:57;5.68;;;4.75;;
36259;SDS011;22296;50.824;5.644;2023-07-08T01:17:28;7.53;;;5.05;;
36259;SDS011;22296;50.824;5.644;2023-07-08T01:20:00;6.28;;;4.60;;
36259;SDS011;22296;50.824;5.644;2023-07-08T01:22:36;7.28;;;4.90;;
36259;SDS011;22296;50.824;5.644;2023-07-08T01:25:04;7.32;;;4.93;;
36259;SDS011;22296;50.824;5.644;2023-07-08T01:27:34;6.23;;;4.40;;
36259;SDS011;22296;50.824;5.644;2023-07-08T01:30:04;6.18;;;4.68;;
36259;SDS011;22296;50.824;5.644;2023-07-08T01:32:36;5.25;;;4.38;;
36259;SDS011;22296;50.824;5.644;2023-07-08T01:35:05;6.38;;;4.50;;
36259;SDS011;22296;50.824;5.644;2023-07-08T01:37:37;5.63;;;4.32;;
36259;SDS011;22296;50.824;5.644;2023-07-08T01:40:47;5.47;;;4.43;;
36259;SDS011;22296;50.824;5.644;2023-07-08T01:43:02;5.97;;;4.32;;
36259;SDS011;22296;50.824;5.644;2023-07-08T01:45:36;5.95;;;4.40;;
36259;SDS011;22296;50.824;5.644;2023-07-08T01:48:07;6.43;;;4.40;;
36259;SDS011;22296;50.824;5.644;2023-07-08T01:50:38;5.68;;;4.82;;
36259;SDS011;22296;50.824;5.644;2023-07-08T01:53:20;7.10;;;4.50;;
36259;SDS011;22296;50.824;5.644;2023-07-08T01:55:54;6.68;;;4.20;;
36259;SDS011;22296;50.824;5.644;2023-07-08T01:58:21;5.68;;;4.20;;
36259;SDS011;22296;50.824;5.644;2023-07-08T02:00:48;6.15;;;4.60;;
36259;SDS011;22296;50.824;5.644;2023-07-08T02:03:15;5.50;;;4.38;;
36259;SDS011;22296;50.824;5.644;2023-07-08T02:05:42;6.50;;;4.38;;
36259;SDS011;22296;50.824;5.644;2023-07-08T02:08:09;6.07;;;3.95;;
36259;SDS011;22296;50.824;5.644;2023-07-08T02:10:37;5.18;;;4.05;;
36259;SDS011;22296;50.824;5.644;2023-07-08T02:15:32;8.15;;;4.90;;
36259;SDS011;22296;50.824;5.644;2023-07-08T02:17:59;5.03;;;4.13;;
36259;SDS011;22296;50.824;5.644;2023-07-08T02:20:26;6.40;;;4.75;;
36259;SDS011;22296;50.824;5.644;2023-07-08T02:22:53;5.40;;;4.40;;
36259;SDS011;22296;50.824;5.644;2023-07-08T02:25:20;7.88;;;5.03;;
36259;SDS011;22296;50.824;5.644;2023-07-08T02:27:46;5.55;;;4.20;;
36259;SDS011;22296;50.824;5.644;2023-07-08T02:30:13;5.43;;;4.00;;
36259;SDS011;22296;50.824;5.644;2023-07-08T02:32:40;7.25;;;4.00;;
36259;SDS011;22296;50.824;5.644;2023-07-08T02:35:08;5.85;;;4.65;;
36259;SDS011;22296;50.824;5.644;2023-07-08T02:37:35;7.55;;;4.20;;
36259;SDS011;22296;50.824;5.644;2023-07-08T02:40:02;5.85;;;4.53;;
36259;SDS011;22296;50.824;5.644;2023-07-08T02:42:29;5.30;;;4.35;;
36259;SDS011;22296;50.824;5.644;2023-07-08T02:44:56;5.95;;;4.03;;
36259;SDS011;22296;50.824;5.644;2023-07-08T02:47:22;8.63;;;4.50;;
36259;SDS011;22296;50.824;5.644;2023-07-08T02:49:49;5.90;;;4.35;;
36259;SDS011;22296;50.824;5.644;2023-07-08T02:52:17;6.78;;;4.65;;
36259;SDS011;22296;50.824;5.644;2023-07-08T02:54:44;6.50;;;4.53;;
36259;SDS011;22296;50.824;5.644;2023-07-08T02:57:10;6.38;;;4.57;;
36259;SDS011;22296;50.824;5.644;2023-07-08T02:59:37;5.68;;;4.40;;
36259;SDS011;22296;50.824;5.644;2023-07-08T03:02:05;6.10;;;4.40;;
36259;SDS011;22296;50.824;5.644;2023-07-08T03:04:32;5.97;;;4.55;;
36259;SDS011;22296;50.824;5.644;2023-07-08T03:06:59;5.30;;;4.28;;
36259;SDS011;22296;50.824;5.644;2023-07-08T03:09:26;6.30;;;4.43;;
36259;SDS011;22296;50.824;5.644;2023-07-08T03:11:53;5.88;;;4.38;;
36259;SDS011;22296;50.824;5.644;2023-07-08T03:14:20;5.85;;;4.45;;
36259;SDS011;22296;50.824;5.644;2023-07-08T03:16:48;7.95;;;4.32;;
36259;SDS011;22296;50.824;5.644;2023-07-08T03:19:15;5.45;;;4.50;;
36259;SDS011;22296;50.824;5.644;2023-07-08T03:21:43;5.87;;;3.80;;
36259;SDS011;22296;50.824;5.644;2023-07-08T03:24:10;5.18;;;4.28;;
36259;SDS011;22296;50.824;5.644;2023-07-08T03:26:41;5.43;;;4.55;;
36259;SDS011;22296;50.824;5.644;2023-07-08T03:29:18;5.73;;;4.40;;
36259;SDS011;22296;50.824;5.644;2023-07-08T03:31:46;5.50;;;4.72;;
36259;SDS011;22296;50.824;5.644;2023-07-08T03:34:15;6.30;;;4.50;;
36259;SDS011;22296;50.824;5.644;2023-07-08T03:36:44;7.25;;;4.43;;
36259;SDS011;22296;50.824;5.644;2023-07-08T03:39:23;6.53;;;4.63;;
36259;SDS011;22296;50.824;5.644;2023-07-08T03:41:51;5.63;;;4.30;;
36259;SDS011;22296;50.824;5.644;2023-07-08T03:44:19;6.18;;;5.00;;
36259;SDS011;22296;50.824;5.644;2023-07-08T03:46:47;5.57;;;4.43;;
36259;SDS011;22296;50.824;5.644;2023-07-08T03:49:18;8.10;;;4.90;;
36259;SDS011;22296;50.824;5.644;2023-07-08T03:51:50;7.43;;;4.57;;
36259;SDS011;22296;50.824;5.644;2023-07-08T03:54:20;7.00;;;4.32;;
36259;SDS011;22296;50.824;5.644;2023-07-08T03:59:15;7.22;;;4.43;;
36259;SDS011;22296;50.824;5.644;2023-07-08T04:01:43;5.40;;;4.40;;
36259;SDS011;22296;50.824;5.644;2023-07-08T04:04:11;5.22;;;4.28;;
36259;SDS011;22296;50.824;5.644;2023-07-08T04:06:42;5.63;;;4.25;;
36259;SDS011;22296;50.824;5.644;2023-07-08T04:09:11;5.63;;;4.57;;
36259;SDS011;22296;50.824;5.644;2023-07-08T04:11:38;5.97;;;4.43;;
36259;SDS011;22296;50.824;5.644;2023-07-08T04:14:05;6.28;;;4.43;;
36259;SDS011;22296;50.824;5.644;2023-07-08T04:16:40;4.80;;;3.75;;
36259;SDS011;22296;50.824;5.644;2023-07-08T04:19:14;5.65;;;4.28;;
36259;SDS011;22296;50.824;5.644;2023-07-08T04:21:43;5.90;;;4.68;;
36259;SDS011;22296;50.824;5.644;2023-07-08T04:24:11;7.53;;;5.00;;
36259;SDS011;22296;50.824;5.644;2023-07-08T04:26:39;6.22;;;4.28;;
36259;SDS011;22296;50.824;5.644;2023-07-08T04:29:10;7.53;;;4.38;;
36259;SDS011;22296;50.824;5.644;2023-07-08T04:31:38;7.72;;;4.60;;
36259;SDS011;22296;50.824;5.644;2023-07-08T04:34:05;8.75;;;5.22;;
36259;SDS011;22296;50.824;5.644;2023-07-08T04:36:32;8.02;;;4.95;;
36259;SDS011;22296;50.824;5.644;2023-07-08T04:39:01;6.72;;;4.45;;
36259;SDS011;22296;50.824;5.644;2023-07-08T04:41:29;6.97;;;4.60;;
36259;SDS011;22296;50.824;5.644;2023-07-08T04:43:55;6.10;;;5.13;;
36259;SDS011;22296;50.824;5.644;2023-07-08T04:46:27;7.22;;;5.30;;
36259;SDS011;22296;50.824;5.644;2023-07-08T04:49:01;5.13;;;4.60;;
36259;SDS011;22296;50.824;5.644;2023-07-08T04:51:29;6.78;;;5.30;;
36259;SDS011;22296;50.824;5.644;2023-07-08T04:53:56;6.55;;;4.60;;
36259;SDS011;22296;50.824;5.644;2023-07-08T04:56:25;6.50;;;4.82;;
36259;SDS011;22296;50.824;5.644;2023-07-08T04:59:01;5.57;;;4.53;;
36259;SDS011;22296;50.824;5.644;2023-07-08T05:01:29;7.05;;;4.55;;
36259;SDS011;22296;50.824;5.644;2023-07-08T05:03:56;6.18;;;4.75;;
36259;SDS011;22296;50.824;5.644;2023-07-08T05:06:22;7.47;;;4.72;;
36259;SDS011;22296;50.824;5.644;2023-07-08T05:08:49;6.43;;;4.65;;
36259;SDS011;22296;50.824;5.644;2023-07-08T05:11:16;6.18;;;4.90;;
36259;SDS011;22296;50.824;5.644;2023-07-08T05:13:43;5.68;;;4.82;;
36259;SDS011;22296;50.824;5.644;2023-07-08T05:16:10;5.30;;;4.45;;
36259;SDS011;22296;50.824;5.644;2023-07-08T05:18:37;5.93;;;4.63;;
36259;SDS011;22296;50.824;5.644;2023-07-08T05:21:04;5.22;;;4.25;;
36259;SDS011;22296;50.824;5.644;2023-07-08T05:23:31;7.25;;;4.75;;
36259;SDS011;22296;50.824;5.644;2023-07-08T05:26:01;5.50;;;4.65;;
36259;SDS011;22296;50.824;5.644;2023-07-08T05:28:29;6.60;;;4.97;;
36259;SDS011;22296;50.824;5.644;2023-07-08T05:30:57;7.15;;;4.68;;
36259;SDS011;22296;50.824;5.644;2023-07-08T05:33:25;7.15;;;5.13;;
36259;SDS011;22296;50.824;5.644;2023-07-08T05:35:53;6.88;;;5.20;;
36259;SDS011;22296;50.824;5.644;2023-07-08T05:38:20;7.15;;;5.13;;
36259;SDS011;22296;50.824;5.644;2023-07-08T05:40:48;7.47;;;5.47;;
36259;SDS011;22296;50.824;5.644;2023-07-08T05:43:20;5.75;;;4.85;;
36259;SDS011;22296;50.824;5.644;2023-07-08T05:45:47;6.40;;;5.00;;
36259;SDS011;22296;50.824;5.644;2023-07-08T05:48:35;5.85;;;4.32;;
36259;SDS011;22296;50.824;5.644;2023-07-08T05:51:02;6.30;;;4.80;;
36259;SDS011;22296;50.824;5.644;2023-07-08T05:53:29;6.15;;;5.13;;
36259;SDS011;22296;50.824;5.644;2023-07-08T05:55:56;7.50;;;4.80;;
36259;SDS011;22296;50.824;5.644;2023-07-08T05:58:23;6.57;;;5.13;;
36259;SDS011;22296;50.824;5.644;2023-07-08T06:00:56;6.05;;;4.43;;
36259;SDS011;22296;50.824;5.644;2023-07-08T06:03:25;6.72;;;4.95;;
36259;SDS011;22296;50.824;5.644;2023-07-08T06:05:52;5.78;;;4.70;;
36259;SDS011;22296;50.824;5.644;2023-07-08T06:08:19;7.93;;;5.53;;
36259;SDS011;22296;50.824;5.644;2023-07-08T06:10:47;7.18;;;4.90;;
36259;SDS011;22296;50.824;5.644;2023-07-08T06:13:14;6.32;;;4.70;;
36259;SDS011;22296;50.824;5.644;2023-07-08T06:15:41;6.57;;;5.30;;
36259;SDS011;22296;50.824;5.644;2023-07-08T06:18:08;7.75;;;5.20;;
36259;SDS011;22296;50.824;5.644;2023-07-08T06:20:35;7.45;;;4.93;;
36259;SDS011;22296;50.824;5.644;2023-07-08T06:23:02;5.60;;;4.47;;
36259;SDS011;22296;50.824;5.644;2023-07-08T06:25:29;5.95;;;4.97;;
36259;SDS011;22296;50.824;5.644;2023-07-08T06:27:56;6.60;;;4.85;;
36259;SDS011;22296;50.824;5.644;2023-07-08T06:30:23;8.40;;;5.38;;
36259;SDS011;22296;50.824;5.644;2023-07-08T06:32:49;6.68;;;4.78;;
36259;SDS011;22296;50.824;5.644;2023-07-08T06:35:19;10.05;;;5.07;;
36259;SDS011;22296;50.824;5.644;2023-07-08T06:37:45;5.90;;;4.75;;
36259;SDS011;22296;50.824;5.644;2023-07-08T06:40:12;7.00;;;5.28;;
36259;SDS011;22296;50.824;5.644;2023-07-08T06:42:39;9.13;;;5.22;;
36259;SDS011;22296;50.824;5.644;2023-07-08T06:45:13;7.47;;;5.53;;
36259;SDS011;22296;50.824;5.644;2023-07-08T06:47:40;5.85;;;5.22;;
36259;SDS011;22296;50.824;5.644;2023-07-08T06:50:07;6.57;;;5.05;;
36259;SDS011;22296;50.824;5.644;2023-07-08T06:52:34;7.70;;;5.28;;
36259;SDS011;22296;50.824;5.644;2023-07-08T06:55:05;7.13;;;5.57;;
36259;SDS011;22296;50.824;5.644;2023-07-08T06:57:34;9.57;;;5.60;;
36259;SDS011;22296;50.824;5.644;2023-07-08T07:00:01;7.72;;;4.97;;
36259;SDS011;22296;50.824;5.644;2023-07-08T07:02:29;12.20;;;5.70;;
36259;SDS011;22296;50.824;5.644;2023-07-08T07:04:56;12.70;;;5.78;;
36259;SDS011;22296;50.824;5.644;2023-07-08T07:07:23;7.28;;;5.50;;
36259;SDS011;22296;50.824;5.644;2023-07-08T07:09:49;8.07;;;5.63;;
36259;SDS011;22296;50.824;5.644;2023-07-08T07:12:16;6.70;;;5.65;;
36259;SDS011;22296;50.824;5.644;2023-07-08T07:14:43;9.38;;;5.80;;
36259;SDS011;22296;50.824;5.644;2023-07-08T07:17:13;7.93;;;5.63;;
36259;SDS011;22296;50.824;5.644;2023-07-08T07:19:40;8.30;;;5.65;;
36259;SDS011;22296;50.824;5.644;2023-07-08T07:22:06;8.20;;;5.80;;
36259;SDS011;22296;50.824;5.644;2023-07-08T07:24:33;8.38;;;5.65;;
36259;SDS011;22296;50.824;5.644;2023-07-08T07:27:00;7.72;;;5.60;;
36259;SDS011;22296;50.824;5.644;2023-07-08T07:29:27;8.15;;;5.85;;
36259;SDS011;22296;50.824;5.644;2023-07-08T07:31:54;8.05;;;5.53;;
36259;SDS011;22296;50.824;5.644;2023-07-08T07:34:21;8.85;;;6.00;;
36259;SDS011;22296;50.824;5.644;2023-07-08T07:36:48;8.32;;;6.05;;
36259;SDS011;22296;50.824;5.644;2023-07-08T07:39:14;9.65;;;6.32;;
36259;SDS011;22296;50.824;5.644;2023-07-08T07:41:41;8.55;;;6.30;;
36259;SDS011;22296;50.824;5.644;2023-07-08T07:44:08;8.88;;;5.63;;
36259;SDS011;22296;50.824;5.644;2023-07-08T07:46:34;12.45;;;6.57;;
36259;SDS011;22296;50.824;5.644;2023-07-08T07:49:01;9.38;;;6.20;;
36259;SDS011;22296;50.824;5.644;2023-07-08T07:51:28;9.00;;;5.80;;
36259;SDS011;22296;50.824;5.644;2023-07-08T07:53:55;10.93;;;6.07;;
36259;SDS011;22296;50.824;5.644;2023-07-08T07:56:22;8.52;;;6.18;;
36259;SDS011;22296;50.824;5.644;2023-07-08T07:58:51;8.30;;;6.20;;
36259;SDS011;22296;50.824;5.644;2023-07-08T08:01:18;8.43;;;6.07;;
36259;SDS011;22296;50.824;5.644;2023-07-08T08:03:46;8.43;;;6.10;;
36259;SDS011;22296;50.824;5.644;2023-07-08T08:06:13;9.73;;;6.50;;
36259;SDS011;22296;50.824;5.644;2023-07-08T08:08:40;8.98;;;5.68;;
36259;SDS011;22296;50.824;5.644;2023-07-08T08:11:07;8.05;;;6.28;;
36259;SDS011;22296;50.824;5.644;2023-07-08T08:13:33;8.68;;;6.20;;
36259;SDS011;22296;50.824;5.644;2023-07-08T08:16:00;8.02;;;6.07;;
36259;SDS011;22296;50.824;5.644;2023-07-08T08:18:27;11.13;;;6.10;;
36259;SDS011;22296;50.824;5.644;2023-07-08T08:20:54;9.20;;;6.57;;
36259;SDS011;22296;50.824;5.644;2023-07-08T08:23:21;7.35;;;5.70;;
36259;SDS011;22296;50.824;5.644;2023-07-08T08:25:49;8.13;;;5.72;;
36259;SDS011;22296;50.824;5.644;2023-07-08T08:28:16;7.80;;;5.47;;
36259;SDS011;22296;50.824;5.644;2023-07-08T08:30:47;8.65;;;5.90;;
36259;SDS011;22296;50.824;5.644;2023-07-08T08:33:15;9.65;;;6.07;;
36259;SDS011;22296;50.824;5.644;2023-07-08T08:35:42;8.02;;;5.63;;
36259;SDS011;22296;50.824;5.644;2023-07-08T08:38:09;8.15;;;5.65;;
36259;SDS011;22296;50.824;5.644;2023-07-08T08:40:37;7.43;;;5.82;;
36259;SDS011;22296;50.824;5.644;2023-07-08T08:43:12;7.55;;;5.85;;
36259;SDS011;22296;50.824;5.644;2023-07-08T08:45:48;9.10;;;6.07;;
36259;SDS011;22296;50.824;5.644;2023-07-08T08:48:17;8.25;;;5.97;;
36259;SDS011;22296;50.824;5.644;2023-07-08T08:50:50;9.73;;;6.72;;
36259;SDS011;22296;50.824;5.644;2023-07-08T08:53:24;9.13;;;6.05;;
36259;SDS011;22296;50.824;5.644;2023-07-08T09:01:30;9.70;;;6.65;;
36259;SDS011;22296;50.824;5.644;2023-07-08T09:06:50;8.75;;;5.90;;
36259;SDS011;22296;50.824;5.644;2023-07-08T09:09:21;8.82;;;6.45;;
36259;SDS011;22296;50.824;5.644;2023-07-08T09:14:32;8.60;;;6.15;;
36259;SDS011;22296;50.824;5.644;2023-07-08T09:27:41;8.57;;;6.10;;
36259;SDS011;22296;50.824;5.644;2023-07-08T09:30:13;8.25;;;6.43;;
36259;SDS011;22296;50.824;5.644;2023-07-08T09:32:41;8.23;;;6.03;;
36259;SDS011;22296;50.824;5.644;2023-07-08T09:35:09;8.73;;;6.45;;
36259;SDS011;22296;50.824;5.644;2023-07-08T09:37:45;8.05;;;6.13;;
36259;SDS011;22296;50.824;5.644;2023-07-08T09:42:51;10.73;;;6.93;;
36259;SDS011;22296;50.824;5.644;2023-07-08T09:45:22;8.45;;;6.60;;
36259;SDS011;22296;50.824;5.644;2023-07-08T09:47:55;10.98;;;6.45;;
36259;SDS011;22296;50.824;5.644;2023-07-08T09:50:26;8.80;;;6.70;;
36259;SDS011;22296;50.824;5.644;2023-07-08T09:52:56;8.40;;;6.07;;
36259;SDS011;22296;50.824;5.644;2023-07-08T09:55:27;8.27;;;6.18;;
36259;SDS011;22296;50.824;5.644;2023-07-08T09:57:55;10.15;;;6.70;;
36259;SDS011;22296;50.824;5.644;2023-07-08T10:03:28;10.15;;;6.53;;
36259;SDS011;22296;50.824;5.644;2023-07-08T10:05:58;7.53;;;5.72;;
36259;SDS011;22296;50.824;5.644;2023-07-08T10:08:40;8.75;;;6.45;;
36259;SDS011;22296;50.824;5.644;2023-07-08T10:13:50;8.13;;;6.15;;
36259;SDS011;22296;50.824;5.644;2023-07-08T10:16:38;10.40;;;6.30;;
36259;SDS011;22296;50.824;5.644;2023-07-08T10:19:13;8.93;;;6.18;;
36259;SDS011;22296;50.824;5.644;2023-07-08T10:21:51;8.48;;;6.72;;
36259;SDS011;22296;50.824;5.644;2023-07-08T10:27:46;10.43;;;6.35;;
36259;SDS011;22296;50.824;5.644;2023-07-08T10:36:05;10.32;;;6.20;;
36259;SDS011;22296;50.824;5.644;2023-07-08T10:38:52;11.98;;;6.05;;
36259;SDS011;22296;50.824;5.644;2023-07-08T10:41:37;9.48;;;7.00;;
36259;SDS011;22296;50.824;5.644;2023-07-08T10:44:11;8.77;;;6.05;;
36259;SDS011;22296;50.824;5.644;2023-07-08T10:46:54;9.93;;;6.70;;
36259;SDS011;22296;50.824;5.644;2023-07-08T11:05:45;8.05;;;6.35;;
36259;SDS011;22296;50.824;5.644;2023-07-08T11:08:22;9.30;;;6.50;;
36259;SDS011;22296;50.824;5.644;2023-07-08T11:13:52;8.93;;;6.07;;
36259;SDS011;22296;50.824;5.644;2023-07-08T11:16:30;9.23;;;6.70;;
36259;SDS011;22296;50.824;5.644;2023-07-08T11:22:05;9.23;;;6.47;;
36259;SDS011;22296;50.824;5.644;2023-07-08T11:27:13;11.07;;;6.80;;
36259;SDS011;22296;50.824;5.644;2023-07-08T11:29:57;9.48;;;6.13;;
36259;SDS011;22296;50.824;5.644;2023-07-08T11:32:25;8.80;;;5.55;;
36259;SDS011;22296;50.824;5.644;2023-07-08T11:34:55;9.40;;;6.38;;
36259;SDS011;22296;50.824;5.644;2023-07-08T11:37:24;9.90;;;6.30;;
36259;SDS011;22296;50.824;5.644;2023-07-08T11:45:22;9.10;;;6.65;;
36259;SDS011;22296;50.824;5.644;2023-07-08T11:47:52;9.30;;;6.00;;
36259;SDS011;22296;50.824;5.644;2023-07-08T11:55:27;9.30;;;6.15;;
36259;SDS011;22296;50.824;5.644;2023-07-08T12:03:48;9.02;;;6.25;;
36259;SDS011;22296;50.824;5.644;2023-07-08T12:08:54;9.55;;;6.10;;
36259;SDS011;22296;50.824;5.644;2023-07-08T12:11:42;7.90;;;5.80;;
36259;SDS011;22296;50.824;5.644;2023-07-08T12:14:11;8.43;;;6.30;;
36259;SDS011;22296;50.824;5.644;2023-07-08T12:16:38;7.38;;;5.93;;
36259;SDS011;22296;50.824;5.644;2023-07-08T12:19:07;8.20;;;5.75;;
36259;SDS011;22296;50.824;5.644;2023-07-08T12:21:40;8.15;;;6.57;;
36259;SDS011;22296;50.824;5.644;2023-07-08T12:24:09;10.18;;;6.22;;
36259;SDS011;22296;50.824;5.644;2023-07-08T12:26:39;8.38;;;6.07;;
36259;SDS011;22296;50.824;5.644;2023-07-08T12:31:37;9.40;;;6.15;;
36259;SDS011;22296;50.824;5.644;2023-07-08T12:34:06;10.23;;;6.60;;
36259;SDS011;22296;50.824;5.644;2023-07-08T12:36:39;9.63;;;5.93;;
36259;SDS011;22296;50.824;5.644;2023-07-08T12:39:08;10.43;;;5.85;;
36259;SDS011;22296;50.824;5.644;2023-07-08T12:41:42;8.27;;;6.30;;
36259;SDS011;22296;50.824;5.644;2023-07-08T12:44:28;8.45;;;6.28;;
36259;SDS011;22296;50.824;5.644;2023-07-08T12:46:55;8.27;;;5.93;;
36259;SDS011;22296;50.824;5.644;2023-07-08T12:49:22;7.55;;;5.60;;
36259;SDS011;22296;50.824;5.644;2023-07-08T12:51:53;9.32;;;6.18;;
36259;SDS011;22296;50.824;5.644;2023-07-08T12:54:20;8.85;;;6.60;;
36259;SDS011;22296;50.824;5.644;2023-07-08T12:56:48;10.30;;;6.40;;
36259;SDS011;22296;50.824;5.644;2023-07-08T12:59:19;7.88;;;6.10;;
36259;SDS011;22296;50.824;5.644;2023-07-08T13:01:49;9.07;;;6.30;;
36259;SDS011;22296;50.824;5.644;2023-07-08T13:04:18;8.13;;;6.20;;
36259;SDS011;22296;50.824;5.644;2023-07-08T13:06:45;10.00;;;5.78;;
36259;SDS011;22296;50.824;5.644;2023-07-08T13:12:00;11.75;;;6.82;;
36259;SDS011;22296;50.824;5.644;2023-07-08T13:14:32;12.23;;;6.55;;
36259;SDS011;22296;50.824;5.644;2023-07-08T13:19:28;13.88;;;6.80;;
36259;SDS011;22296;50.824;5.644;2023-07-08T13:21:55;10.68;;;6.50;;
36259;SDS011;22296;50.824;5.644;2023-07-08T13:24:22;8.10;;;5.72;;
36259;SDS011;22296;50.824;5.644;2023-07-08T13:26:49;8.63;;;6.45;;
36259;SDS011;22296;50.824;5.644;2023-07-08T13:29:17;8.40;;;6.22;;
36259;SDS011;22296;50.824;5.644;2023-07-08T13:31:48;9.65;;;5.75;;
36259;SDS011;22296;50.824;5.644;2023-07-08T13:34:20;7.63;;;6.38;;
36259;SDS011;22296;50.824;5.644;2023-07-08T13:36:50;8.05;;;5.70;;
36259;SDS011;22296;50.824;5.644;2023-07-08T13:39:22;11.45;;;6.60;;
36259;SDS011;22296;50.824;5.644;2023-07-08T13:41:53;8.00;;;5.30;;
36259;SDS011;22296;50.824;5.644;2023-07-08T13:44:21;8.85;;;5.78;;
36259;SDS011;22296;50.824;5.644;2023-07-08T13:46:52;7.68;;;5.45;;
36259;SDS011;22296;50.824;5.644;2023-07-08T13:51:50;7.18;;;5.85;;
36259;SDS011;22296;50.824;5.644;2023-07-08T13:56:49;8.55;;;5.65;;
36259;SDS011;22296;50.824;5.644;2023-07-08T13:59:24;8.17;;;5.73;;
36259;SDS011;22296;50.824;5.644;2023-07-08T14:01:53;9.60;;;5.72;;
36259;SDS011;22296;50.824;5.644;2023-07-08T14:04:29;10.13;;;5.78;;
36259;SDS011;22296;50.824;5.644;2023-07-08T14:06:59;8.48;;;5.85;;
36259;SDS011;22296;50.824;5.644;2023-07-08T14:09:26;11.02;;;6.82;;
36259;SDS011;22296;50.824;5.644;2023-07-08T14:11:53;10.90;;;6.60;;
36259;SDS011;22296;50.824;5.644;2023-07-08T14:14:20;13.27;;;6.60;;
36259;SDS011;22296;50.824;5.644;2023-07-08T14:16:48;9.57;;;5.57;;
36259;SDS011;22296;50.824;5.644;2023-07-08T14:19:19;11.45;;;6.50;;
36259;SDS011;22296;50.824;5.644;2023-07-08T14:22:00;10.52;;;6.15;;
36259;SDS011;22296;50.824;5.644;2023-07-08T14:24:29;9.68;;;6.00;;
36259;SDS011;22296;50.824;5.644;2023-07-08T14:26:55;9.52;;;5.88;;
36259;SDS011;22296;50.824;5.644;2023-07-08T14:29:22;7.85;;;5.53;;
36259;SDS011;22296;50.824;5.644;2023-07-08T14:31:49;7.25;;;4.57;;
36259;SDS011;22296;50.824;5.644;2023-07-08T14:34:23;9.45;;;5.40;;
36259;SDS011;22296;50.824;5.644;2023-07-08T14:36:52;7.93;;;4.78;;
36259;SDS011;22296;50.824;5.644;2023-07-08T14:39:19;7.18;;;5.40;;
36259;SDS011;22296;50.824;5.644;2023-07-08T14:41:48;9.63;;;5.43;;
36259;SDS011;22296;50.824;5.644;2023-07-08T14:47:01;9.75;;;5.05;;
36259;SDS011;22296;50.824;5.644;2023-07-08T14:49:28;11.02;;;5.25;;
36259;SDS011;22296;50.824;5.644;2023-07-08T14:51:55;8.05;;;4.78;;
36259;SDS011;22296;50.824;5.644;2023-07-08T14:54:22;9.30;;;5.10;;
36259;SDS011;22296;50.824;5.644;2023-07-08T14:56:49;9.07;;;4.93;;
36259;SDS011;22296;50.824;5.644;2023-07-08T14:59:18;8.50;;;5.15;;
36259;SDS011;22296;50.824;5.644;2023-07-08T15:01:46;7.68;;;4.95;;
36259;SDS011;22296;50.824;5.644;2023-07-08T15:04:15;7.35;;;4.78;;
36259;SDS011;22296;50.824;5.644;2023-07-08T15:06:43;6.82;;;4.85;;
36259;SDS011;22296;50.824;5.644;2023-07-08T15:09:11;10.43;;;5.40;;
36259;SDS011;22296;50.824;5.644;2023-07-08T15:11:39;7.38;;;4.70;;
36259;SDS011;22296;50.824;5.644;2023-07-08T15:14:23;8.20;;;4.70;;
36259;SDS011;22296;50.824;5.644;2023-07-08T15:16:51;7.07;;;4.82;;
36259;SDS011;22296;50.824;5.644;2023-07-08T15:19:19;10.18;;;4.70;;
36259;SDS011;22296;50.824;5.644;2023-07-08T15:21:47;7.38;;;4.80;;
36259;SDS011;22296;50.824;5.644;2023-07-08T15:24:14;7.40;;;4.78;;
36259;SDS011;22296;50.824;5.644;2023-07-08T15:26:46;7.13;;;4.30;;
36259;SDS011;22296;50.824;5.644;2023-07-08T15:29:15;8.63;;;5.00;;
36259;SDS011;22296;50.824;5.644;2023-07-08T15:31:44;8.18;;;4.75;;
36259;SDS011;22296;50.824;5.644;2023-07-08T15:34:13;6.55;;;4.70;;
36259;SDS011;22296;50.824;5.644;2023-07-08T15:36:41;7.03;;;4.68;;
36259;SDS011;22296;50.824;5.644;2023-07-08T15:39:08;7.25;;;4.93;;
36259;SDS011;22296;50.824;5.644;2023-07-08T15:41:35;9.25;;;4.75;;
36259;SDS011;22296;50.824;5.644;2023-07-08T15:44:06;8.65;;;5.35;;
36259;SDS011;22296;50.824;5.644;2023-07-08T15:46:37;6.88;;;4.28;;
36259;SDS011;22296;50.824;5.644;2023-07-08T15:49:14;7.30;;;5.10;;
36259;SDS011;22296;50.824;5.644;2023-07-08T15:51:42;7.03;;;4.75;;
36259;SDS011;22296;50.824;5.644;2023-07-08T15:54:14;7.43;;;4.70;;
36259;SDS011;22296;50.824;5.644;2023-07-08T15:56:40;7.95;;;5.13;;
36259;SDS011;22296;50.824;5.644;2023-07-08T15:59:15;8.38;;;5.20;;
36259;SDS011;22296;50.824;5.644;2023-07-08T16:01:45;6.68;;;4.68;;
36259;SDS011;22296;50.824;5.644;2023-07-08T16:04:30;7.30;;;5.10;;
36259;SDS011;22296;50.824;5.644;2023-07-08T16:06:59;8.50;;;4.93;;
36259;SDS011;22296;50.824;5.644;2023-07-08T16:09:26;5.63;;;4.68;;
36259;SDS011;22296;50.824;5.644;2023-07-08T16:11:53;6.32;;;5.00;;
36259;SDS011;22296;50.824;5.644;2023-07-08T16:14:20;8.32;;;4.93;;
36259;SDS011;22296;50.824;5.644;2023-07-08T16:16:49;5.93;;;4.50;;
36259;SDS011;22296;50.824;5.644;2023-07-08T16:19:16;8.35;;;4.82;;
36259;SDS011;22296;50.824;5.644;2023-07-08T16:21:42;8.95;;;5.95;;
36259;SDS011;22296;50.824;5.644;2023-07-08T16:24:09;8.63;;;6.00;;
36259;SDS011;22296;50.824;5.644;2023-07-08T16:26:36;11.98;;;10.85;;
36259;SDS011;22296;50.824;5.644;2023-07-08T16:29:05;12.40;;;11.05;;
36259;SDS011;22296;50.824;5.644;2023-07-08T16:31:32;9.90;;;7.93;;
36259;SDS011;22296;50.824;5.644;2023-07-08T16:34:00;6.85;;;5.68;;
36259;SDS011;22296;50.824;5.644;2023-07-08T16:36:27;7.55;;;6.20;;
36259;SDS011;22296;50.824;5.644;2023-07-08T16:38:54;9.13;;;5.97;;
36259;SDS011;22296;50.824;5.644;2023-07-08T16:41:23;7.40;;;5.57;;
36259;SDS011;22296;50.824;5.644;2023-07-08T16:43:52;8.95;;;5.10;;
36259;SDS011;22296;50.824;5.644;2023-07-08T16:46:19;8.00;;;5.47;;
36259;SDS011;22296;50.824;5.644;2023-07-08T16:48:47;6.50;;;5.03;;
36259;SDS011;22296;50.824;5.644;2023-07-08T16:51:21;5.82;;;5.13;;
36259;SDS011;22296;50.824;5.644;2023-07-08T16:53:56;6.20;;;4.57;;
36259;SDS011;22296;50.824;5.644;2023-07-08T16:56:27;5.72;;;4.78;;